Time;durP1;ratioP1;P1;durP2;ratioP2;P2;SDS_P1;SDS_P2;PMS_P1;PMS_P2;Temp;Humidity;BMP_temperature;BMP_pressure;BME280_temperature;BME280_humidity;BME280_pressure;Samples;Min_cycle;Max_cycle;Signal;HPM_P1;HPM_P2
2021/12/27 00:00:29;;;;;;;25.90;14.37;;;3.60;99.90;;;;;;4992771;28;20210;-79
2021/12/27 00:02:59;;;;;;;20.83;14.30;;;3.70;99.90;;;;;;4995122;28;20225;-79
2021/12/27 00:05:25;;;;;;;19.95;13.98;;;3.70;99.90;;;;;;4995023;28;20205;-79
2021/12/27 00:07:51;;;;;;;21.47;14.93;;;3.70;99.90;;;;;;4994758;28;20246;-79
2021/12/27 00:10:19;;;;;;;19.38;14.00;;;3.70;99.90;;;;;;4994519;28;20185;-79
2021/12/27 00:12:45;;;;;;;23.00;14.02;;;3.70;99.90;;;;;;4994934;28;20180;-79
2021/12/27 00:15:13;;;;;;;19.55;14.25;;;3.70;99.90;;;;;;4994688;28;20185;-80
2021/12/27 00:17:40;;;;;;;20.48;15.30;;;3.70;99.90;;;;;;4993223;28;20186;-79
2021/12/27 00:20:10;;;;;;;21.42;14.73;;;3.70;99.90;;;;;;4994220;28;20541;-79
2021/12/27 00:22:36;;;;;;;21.58;15.55;;;3.70;99.90;;;;;;4994703;28;20545;-78
2021/12/27 00:25:04;;;;;;;19.23;14.38;;;3.70;99.90;;;;;;4994535;28;20273;-79
2021/12/27 00:27:29;;;;;;;22.80;16.05;;;3.70;99.90;;;;;;4994408;28;20179;-80
2021/12/27 00:29:55;;;;;;;18.63;13.50;;;3.70;99.90;;;;;;4994038;28;20714;-79
2021/12/27 00:32:21;;;;;;;18.80;14.77;;;3.70;99.90;;;;;;4993136;28;20219;-79
2021/12/27 00:34:46;;;;;;;20.30;14.03;;;3.80;99.90;;;;;;4994528;28;20183;-80
2021/12/27 00:37:12;;;;;;;20.70;15.17;;;3.80;99.90;;;;;;4994321;28;20719;-79
2021/12/27 00:39:39;;;;;;;25.97;15.80;;;3.70;99.90;;;;;;4993965;28;20183;-78
2021/12/27 00:42:05;;;;;;;25.20;16.33;;;3.70;99.90;;;;;;4994040;28;20210;-79
2021/12/27 00:44:31;;;;;;;22.65;15.45;;;3.70;99.90;;;;;;4994287;28;20238;-79
2021/12/27 00:46:57;;;;;;;20.95;15.52;;;3.70;99.90;;;;;;4994455;28;20191;-79
2021/12/27 00:49:23;;;;;;;24.17;14.70;;;3.80;99.90;;;;;;4992793;28;20707;-80
2021/12/27 00:51:48;;;;;;;20.92;14.48;;;3.80;99.90;;;;;;4994146;28;20546;-78
2021/12/27 00:54:15;;;;;;;22.50;14.30;;;3.90;99.90;;;;;;4994160;28;20179;-80
2021/12/27 00:56:41;;;;;;;21.48;14.55;;;3.90;99.90;;;;;;4994253;28;20210;-81
2021/12/27 00:59:07;;;;;;;23.52;16.38;;;3.90;99.90;;;;;;4993883;28;20550;-79
2021/12/27 01:01:33;;;;;;;21.13;15.23;;;3.90;99.90;;;;;;4993716;28;20210;-80
2021/12/27 01:03:59;;;;;;;22.53;13.20;;;3.90;99.90;;;;;;4993938;28;20599;-79
2021/12/27 01:06:25;;;;;;;20.05;12.95;;;3.90;99.90;;;;;;4992679;28;20961;-80
2021/12/27 01:08:52;;;;;;;23.67;14.27;;;3.90;99.90;;;;;;4993918;28;20215;-79
2021/12/27 01:11:27;;;;;;;17.67;12.27;;;3.90;99.90;;;;;;4993077;28;20203;-80
2021/12/27 01:14:26;;;;;;;18.98;13.77;;;3.90;99.90;;;;;;4992940;28;20250;-79
2021/12/27 01:16:45;;;;;;;16.90;12.68;;;3.90;99.90;;;;;;4991866;28;20187;-80
2021/12/27 01:19:11;;;;;;;17.77;12.38;;;3.90;99.90;;;;;;4993928;28;20211;-79
2021/12/27 01:21:36;;;;;;;19.42;13.40;;;3.90;99.90;;;;;;4993798;28;20214;-81
2021/12/27 01:24:04;;;;;;;20.53;13.17;;;3.90;99.90;;;;;;4993867;28;20178;-80
2021/12/27 01:26:29;;;;;;;18.80;12.52;;;4.00;99.90;;;;;;4993874;28;20175;-80
2021/12/27 01:28:56;;;;;;;20.23;13.10;;;4.00;99.90;;;;;;4993721;28;20641;-79
2021/12/27 01:31:23;;;;;;;18.48;13.07;;;4.00;99.90;;;;;;4993333;28;20485;-79
2021/12/27 01:33:49;;;;;;;19.67;12.57;;;4.00;99.90;;;;;;4993783;28;20176;-79
2021/12/27 01:36:15;;;;;;;19.17;12.90;;;4.00;99.90;;;;;;4993417;28;20705;-79
2021/12/27 01:38:41;;;;;;;16.45;12.15;;;4.00;99.90;;;;;;4993730;28;20538;-80
2021/12/27 01:41:10;;;;;;;15.77;11.18;;;4.00;99.90;;;;;;4993274;28;20245;-81
2021/12/27 01:43:37;;;;;;;20.50;12.48;;;4.10;99.90;;;;;;4993647;28;20192;-80
2021/12/27 01:46:06;;;;;;;16.27;12.05;;;4.10;99.90;;;;;;4993652;28;20278;-80
2021/12/27 01:48:37;;;;;;;15.40;11.88;;;4.10;99.90;;;;;;4993472;28;20210;-80
2021/12/27 01:51:05;;;;;;;20.60;13.27;;;4.10;99.90;;;;;;4993272;28;20557;-80
2021/12/27 01:53:33;;;;;;;17.33;12.02;;;4.10;99.90;;;;;;4992295;28;20176;-82
2021/12/27 01:55:59;;;;;;;16.10;11.77;;;4.10;99.90;;;;;;4993581;28;20173;-79
2021/12/27 01:58:26;;;;;;;17.33;11.98;;;4.10;99.90;;;;;;4993506;28;20232;-79
2021/12/27 02:00:54;;;;;;;16.52;11.43;;;4.10;99.90;;;;;;4993140;28;20211;-80
2021/12/27 02:03:23;;;;;;;18.90;11.40;;;4.10;99.90;;;;;;4992040;28;20195;-80
2021/12/27 02:05:48;;;;;;;17.65;11.30;;;4.10;99.90;;;;;;4993630;28;20180;-81
2021/12/27 02:08:14;;;;;;;19.20;11.57;;;4.10;99.90;;;;;;4993534;28;20226;-80
2021/12/27 02:10:41;;;;;;;15.67;13.33;;;4.10;99.90;;;;;;4993112;28;20222;-78
2021/12/27 02:13:07;;;;;;;16.50;11.57;;;4.10;99.90;;;;;;4993552;28;20179;-79
2021/12/27 02:15:32;;;;;;;18.10;11.20;;;4.20;99.90;;;;;;4993546;28;20247;-79
2021/12/27 02:17:58;;;;;;;16.70;11.70;;;4.20;99.90;;;;;;4993475;28;20581;-80
2021/12/27 02:20:29;;;;;;;13.90;10.67;;;4.20;99.90;;;;;;4991784;28;20262;-80
2021/12/27 02:23:01;;;;;;;16.38;11.02;;;4.20;99.90;;;;;;4994664;28;20217;-79
2021/12/27 02:25:32;;;;;;;12.25;9.80;;;4.20;99.90;;;;;;4995690;28;20184;-80
2021/12/27 02:28:00;;;;;;;14.88;11.10;;;4.20;99.90;;;;;;4995586;28;20195;-80
2021/12/27 02:30:25;;;;;;;18.02;11.40;;;4.20;99.90;;;;;;4996391;28;20182;-80
2021/12/27 02:32:54;;;;;;;17.50;10.50;;;4.20;99.90;;;;;;4996758;28;20171;-80
2021/12/27 02:35:30;;;;;;;15.27;10.93;;;4.20;99.90;;;;;;4996721;28;20820;-80
2021/12/27 02:37:57;;;;;;;15.25;10.77;;;4.20;99.90;;;;;;4996746;28;20182;-81
2021/12/27 02:40:25;;;;;;;15.75;10.70;;;4.20;99.90;;;;;;4996187;28;20180;-79
2021/12/27 02:43:08;;;;;;;16.00;11.13;;;4.20;99.90;;;;;;4995357;28;20339;-80
2021/12/27 02:45:39;;;;;;;15.30;10.65;;;4.20;99.90;;;;;;4996500;28;20183;-80
2021/12/27 02:48:06;;;;;;;17.15;11.35;;;4.20;99.90;;;;;;4996426;28;20223;-79
2021/12/27 02:50:33;;;;;;;14.77;10.98;;;4.20;99.90;;;;;;4996058;28;20199;-79
2021/12/27 02:52:59;;;;;;;19.73;11.32;;;4.20;99.90;;;;;;4996239;28;20234;-80
2021/12/27 02:55:26;;;;;;;20.50;13.50;;;4.20;99.90;;;;;;4996644;28;20182;-79
2021/12/27 02:57:52;;;;;;;15.88;11.73;;;4.20;99.90;;;;;;4996643;28;20179;-80
2021/12/27 03:00:23;;;;;;;17.25;12.38;;;4.10;99.90;;;;;;4996145;28;20530;-79
2021/12/27 03:02:50;;;;;;;19.95;12.70;;;4.00;99.90;;;;;;4996233;28;20560;-81
2021/12/27 03:05:19;;;;;;;17.45;12.38;;;4.10;99.90;;;;;;4996247;28;20179;-81
2021/12/27 03:07:47;;;;;;;19.40;13.77;;;4.10;99.90;;;;;;4996156;28;20195;-81
2021/12/27 03:10:14;;;;;;;21.98;13.10;;;4.10;99.90;;;;;;4996130;28;20178;-79
2021/12/27 03:12:43;;;;;;;18.80;12.80;;;4.10;99.90;;;;;;4996055;28;20186;-80
2021/12/27 03:15:11;;;;;;;17.90;13.23;;;4.10;99.90;;;;;;4995977;28;20176;-79
2021/12/27 03:17:37;;;;;;;19.65;13.15;;;4.20;99.90;;;;;;4996146;28;20172;-80
2021/12/27 03:20:05;;;;;;;21.90;12.82;;;4.10;99.90;;;;;;4995806;28;20179;-79
2021/12/27 03:22:31;;;;;;;23.38;15.70;;;4.20;99.90;;;;;;4995907;28;20203;-81
2021/12/27 03:24:57;;;;;;;19.52;13.98;;;4.20;99.90;;;;;;4995927;28;20604;-79
2021/12/27 03:27:23;;;;;;;20.57;13.10;;;4.10;99.90;;;;;;4995624;28;20267;-79
2021/12/27 03:29:49;;;;;;;20.10;12.90;;;4.10;99.90;;;;;;4995443;28;20970;-81
2021/12/27 03:32:15;;;;;;;17.07;12.30;;;4.00;99.90;;;;;;4995686;28;20683;-81
2021/12/27 03:34:52;;;;;;;25.15;14.02;;;4.00;99.90;;;;;;4994368;28;20506;-81
2021/12/27 03:37:19;;;;;;;18.58;11.77;;;4.00;99.90;;;;;;4995554;28;20255;-80
2021/12/27 03:39:44;;;;;;;19.95;12.70;;;4.00;99.90;;;;;;4995261;28;20194;-80
2021/12/27 03:42:10;;;;;;;19.23;12.90;;;4.10;99.90;;;;;;4995424;28;20625;-82
2021/12/27 03:44:36;;;;;;;17.93;12.30;;;4.10;99.90;;;;;;4995564;28;20192;-80
2021/12/27 03:47:01;;;;;;;18.90;13.00;;;4.10;99.90;;;;;;4995413;28;20206;-79
2021/12/27 03:49:27;;;;;;;14.57;10.60;;;4.20;99.90;;;;;;4995031;28;20211;-80
2021/12/27 03:51:53;;;;;;;20.57;12.20;;;4.20;99.90;;;;;;4994259;28;20434;-81
2021/12/27 03:54:18;;;;;;;15.00;11.53;;;4.20;99.90;;;;;;4995393;28;20179;-81
2021/12/27 03:56:44;;;;;;;18.80;11.80;;;4.20;99.90;;;;;;4995342;28;20257;-80
2021/12/27 04:02:05;;;;;;;18.33;12.48;;;4.20;99.90;;;;;;4986162;28;20223;-82
2021/12/27 04:04:33;;;;;;;15.43;10.90;;;4.20;99.90;;;;;;4994049;28;20262;-82
2021/12/27 04:06:59;;;;;;;16.35;11.68;;;4.30;99.90;;;;;;4995386;28;20504;-82
2021/12/27 04:09:24;;;;;;;17.40;11.50;;;4.30;99.90;;;;;;4994761;28;20213;-80
2021/12/27 04:11:50;;;;;;;15.13;10.87;;;4.30;99.90;;;;;;4995003;28;20442;-81
2021/12/27 04:14:16;;;;;;;17.03;11.17;;;4.40;99.90;;;;;;4995112;28;20187;-81
2021/12/27 04:16:42;;;;;;;17.90;11.18;;;4.40;99.90;;;;;;4995001;28;20185;-80
2021/12/27 04:19:08;;;;;;;16.63;11.70;;;4.40;99.90;;;;;;4993563;28;20180;-80
2021/12/27 04:21:34;;;;;;;22.27;12.43;;;4.50;99.90;;;;;;4994381;28;20435;-82
2021/12/27 04:24:00;;;;;;;13.90;10.33;;;4.50;99.90;;;;;;4993483;28;20179;-81
2021/12/27 04:26:25;;;;;;;16.17;11.80;;;4.50;99.90;;;;;;4994652;28;20171;-80
2021/12/27 04:28:51;;;;;;;17.77;12.40;;;4.50;99.90;;;;;;4994566;28;20494;-81
2021/12/27 04:31:17;;;;;;;16.48;11.63;;;4.50;99.90;;;;;;4994161;28;20278;-80
2021/12/27 04:33:43;;;;;;;16.30;11.50;;;4.50;99.90;;;;;;4994412;28;20270;-80
2021/12/27 04:36:09;;;;;;;18.52;12.80;;;4.50;99.90;;;;;;4994484;28;20418;-81
2021/12/27 04:38:36;;;;;;;19.10;11.07;;;4.50;99.90;;;;;;4994479;28;20180;-80
2021/12/27 04:41:04;;;;;;;18.35;12.20;;;4.50;99.90;;;;;;4993956;28;20214;-80
2021/12/27 04:43:30;;;;;;;16.17;10.68;;;4.50;99.90;;;;;;4994356;28;20537;-80
2021/12/27 04:45:55;;;;;;;18.90;11.60;;;4.50;99.90;;;;;;4992494;28;20194;-82
2021/12/27 04:48:24;;;;;;;19.20;12.00;;;4.50;99.90;;;;;;4994384;28;20218;-82
2021/12/27 04:50:50;;;;;;;21.27;12.68;;;4.50;99.90;;;;;;4993874;28;20211;-81
2021/12/27 04:53:16;;;;;;;12.27;10.05;;;4.50;99.90;;;;;;4994369;28;20188;-81
2021/12/27 04:55:44;;;;;;;13.70;10.87;;;4.50;99.90;;;;;;4994077;28;20663;-81
2021/12/27 04:58:10;;;;;;;16.15;11.32;;;4.50;99.90;;;;;;4994457;28;20577;-82
2021/12/27 05:00:37;;;;;;;14.90;11.38;;;4.60;99.90;;;;;;4993876;28;20208;-82
2021/12/27 05:03:04;;;;;;;18.73;12.75;;;4.50;99.90;;;;;;4994162;28;20223;-81
2021/12/27 05:05:31;;;;;;;17.00;11.20;;;4.50;99.90;;;;;;4994006;28;20190;-81
2021/12/27 05:08:00;;;;;;;16.33;10.80;;;4.50;99.90;;;;;;4992757;28;20203;-81
2021/12/27 05:10:27;;;;;;;17.75;10.88;;;4.50;99.90;;;;;;4993837;28;20173;-80
2021/12/27 05:12:53;;;;;;;15.10;11.77;;;4.50;99.90;;;;;;4994025;28;20184;-80
2021/12/27 05:15:19;;;;;;;13.82;10.77;;;4.60;99.90;;;;;;4992771;28;20266;-80
2021/12/27 05:17:44;;;;;;;16.20;11.27;;;4.60;99.90;;;;;;4993873;28;20621;-81
2021/12/27 05:20:10;;;;;;;14.50;9.83;;;4.60;99.90;;;;;;4993378;28;20183;-81
2021/12/27 05:22:38;;;;;;;13.90;11.07;;;4.60;99.90;;;;;;4992933;28;20541;-81
2021/12/27 05:25:04;;;;;;;16.90;10.40;;;4.60;99.90;;;;;;4994107;28;20513;-79
2021/12/27 05:27:30;;;;;;;17.63;12.13;;;4.60;99.90;;;;;;4993864;28;20179;-81
2021/12/27 05:29:55;;;;;;;14.60;10.37;;;4.70;99.90;;;;;;4992219;28;20263;-82
2021/12/27 05:32:21;;;;;;;16.57;10.87;;;4.70;99.90;;;;;;4993736;28;20311;-81
2021/12/27 05:34:47;;;;;;;15.87;11.23;;;4.70;99.90;;;;;;4992646;28;20171;-80
2021/12/27 05:37:12;;;;;;;14.87;10.30;;;4.70;99.90;;;;;;4992496;28;20183;-80
2021/12/27 05:39:38;;;;;;;11.90;10.40;;;4.70;99.90;;;;;;4992308;28;20286;-81
2021/12/27 05:42:05;;;;;;;14.82;11.00;;;4.70;99.90;;;;;;4993421;28;20197;-83
2021/12/27 05:44:31;;;;;;;14.60;10.32;;;4.70;99.90;;;;;;4993646;28;20266;-82
2021/12/27 05:46:56;;;;;;;12.80;10.20;;;4.70;99.90;;;;;;4993651;28;20576;-82
2021/12/27 05:49:23;;;;;;;15.97;11.77;;;4.70;99.90;;;;;;4992038;28;20215;-82
2021/12/27 05:51:49;;;;;;;17.60;10.75;;;4.70;99.90;;;;;;4993756;28;20249;-82
2021/12/27 05:54:15;;;;;;;14.00;9.60;;;4.70;99.90;;;;;;4993631;28;20539;-80
2021/12/27 05:56:43;;;;;;;14.47;9.67;;;4.80;99.90;;;;;;4995002;28;20453;-81
2021/12/27 05:59:09;;;;;;;12.98;9.35;;;4.80;99.90;;;;;;4997427;28;20578;-82
2021/12/27 06:01:35;;;;;;;14.83;10.27;;;4.80;99.90;;;;;;4997094;28;20716;-81
2021/12/27 06:04:00;;;;;;;14.17;9.53;;;4.80;99.90;;;;;;4997335;28;20477;-82
2021/12/27 06:06:26;;;;;;;16.17;10.73;;;4.80;99.90;;;;;;4997208;28;20175;-83
2021/12/27 06:08:52;;;;;;;17.00;9.90;;;4.80;99.90;;;;;;4997625;28;20274;-82
2021/12/27 06:11:18;;;;;;;15.23;10.35;;;4.80;99.90;;;;;;4996951;28;20484;-81
2021/12/27 06:13:44;;;;;;;16.20;10.00;;;4.90;99.90;;;;;;4997406;28;20171;-82
2021/12/27 06:16:10;;;;;;;16.23;10.07;;;4.90;99.90;;;;;;4997148;28;20924;-81
2021/12/27 06:18:36;;;;;;;20.30;11.45;;;4.90;99.90;;;;;;4997278;28;20569;-81
2021/12/27 06:21:02;;;;;;;17.05;11.07;;;4.90;99.90;;;;;;4996916;28;20203;-80
2021/12/27 06:23:28;;;;;;;18.83;10.40;;;4.90;99.90;;;;;;4997146;28;20172;-82
2021/12/27 06:25:53;;;;;;;14.80;9.63;;;4.90;99.90;;;;;;4995843;28;20179;-81
2021/12/27 06:28:19;;;;;;;15.97;10.57;;;4.90;99.90;;;;;;4996830;28;20207;-82
2021/12/27 06:30:44;;;;;;;17.00;10.97;;;4.90;99.90;;;;;;4995344;28;20219;-81
2021/12/27 06:33:10;;;;;;;18.27;10.00;;;4.90;99.90;;;;;;4995653;28;20595;-82
2021/12/27 06:35:37;;;;;;;14.60;9.70;;;4.90;99.90;;;;;;4996890;28;20179;-82
2021/12/27 06:38:02;;;;;;;17.45;10.25;;;4.80;99.90;;;;;;4996747;28;20191;-81
2021/12/27 06:40:30;;;;;;;12.87;9.10;;;4.80;99.90;;;;;;4996211;28;20187;-82
2021/12/27 06:42:56;;;;;;;18.02;9.80;;;4.80;99.90;;;;;;4996539;28;20232;-82
2021/12/27 06:45:22;;;;;;;17.67;10.20;;;4.80;99.90;;;;;;4996625;28;20184;-81
2021/12/27 06:47:47;;;;;;;14.70;9.73;;;4.90;99.90;;;;;;4996557;28;20666;-82
2021/12/27 06:50:13;;;;;;;15.73;10.93;;;4.80;99.90;;;;;;4994961;28;20199;-83
2021/12/27 06:52:39;;;;;;;17.10;9.47;;;4.90;99.90;;;;;;4996363;28;20593;-83
2021/12/27 06:55:06;;;;;;;14.50;9.47;;;4.90;99.90;;;;;;4996366;28;20411;-81
2021/12/27 06:57:31;;;;;;;14.95;9.40;;;5.00;99.90;;;;;;4996447;28;20579;-82
2021/12/27 06:59:58;;;;;;;16.27;11.00;;;4.90;99.90;;;;;;4996039;28;20183;-82
2021/12/27 07:02:24;;;;;;;17.65;9.80;;;4.90;99.90;;;;;;4996189;28;20219;-83
2021/12/27 07:04:50;;;;;;;20.52;11.32;;;4.80;99.90;;;;;;4996331;28;20176;-81
2021/12/27 07:07:15;;;;;;;17.73;11.57;;;4.80;99.90;;;;;;4996404;28;20182;-84
2021/12/27 07:09:41;;;;;;;22.43;11.60;;;4.70;99.90;;;;;;4994116;28;20210;-81
2021/12/27 07:12:07;;;;;;;18.23;11.07;;;4.60;99.90;;;;;;4996130;28;20199;-83
2021/12/27 07:14:33;;;;;;;17.08;12.75;;;4.60;99.90;;;;;;4994940;28;20184;-81
2021/12/27 07:16:59;;;;;;;23.37;13.40;;;4.60;99.90;;;;;;4995897;28;20527;-83
2021/12/27 07:19:25;;;;;;;23.42;12.50;;;4.50;99.90;;;;;;4995794;28;20187;-83
2021/12/27 07:21:50;;;;;;;22.97;12.50;;;4.50;99.90;;;;;;4995888;28;20278;-80
2021/12/27 07:24:16;;;;;;;15.97;11.30;;;4.50;99.90;;;;;;4995891;28;20422;-81
2021/12/27 07:26:42;;;;;;;18.43;10.13;;;4.40;99.90;;;;;;4995768;28;20711;-81
2021/12/27 07:29:07;;;;;;;17.07;11.60;;;4.40;99.90;;;;;;4995532;28;20695;-83
2021/12/27 07:31:33;;;;;;;17.83;11.57;;;4.40;99.90;;;;;;4994344;28;20289;-83
2021/12/27 07:34:00;;;;;;;14.93;10.10;;;4.30;99.90;;;;;;4995811;28;20200;-83
2021/12/27 07:36:28;;;;;;;14.00;10.45;;;4.20;99.90;;;;;;4995659;28;20186;-83
2021/12/27 07:38:54;;;;;;;20.02;11.07;;;4.20;99.90;;;;;;4995641;28;20636;-82
2021/12/27 07:41:20;;;;;;;15.37;10.00;;;4.10;99.90;;;;;;4995120;28;20203;-82
2021/12/27 07:43:45;;;;;;;17.43;10.50;;;4.10;99.90;;;;;;4994292;28;20426;-81
2021/12/27 07:46:11;;;;;;;17.17;10.87;;;4.00;99.90;;;;;;4995464;28;20433;-81
2021/12/27 07:48:37;;;;;;;16.00;9.40;;;4.00;99.90;;;;;;4995443;28;20236;-82
2021/12/27 07:51:03;;;;;;;18.93;9.80;;;4.00;99.90;;;;;;4994888;28;20203;-81
2021/12/27 07:53:28;;;;;;;19.60;11.20;;;4.00;99.90;;;;;;4995324;28;20213;-83
2021/12/27 07:55:54;;;;;;;16.27;10.20;;;4.10;99.90;;;;;;4995394;28;20233;-82
2021/12/27 07:58:20;;;;;;;16.40;10.10;;;4.10;99.90;;;;;;4995496;28;20186;-80
2021/12/27 08:00:50;;;;;;;12.67;9.93;;;4.20;99.90;;;;;;4995093;28;20210;-81
2021/12/27 08:03:17;;;;;;;15.35;9.65;;;4.20;99.90;;;;;;4993908;28;20660;-82
2021/12/27 08:05:43;;;;;;;15.90;10.95;;;4.20;99.90;;;;;;4995191;28;20275;-83
2021/12/27 08:08:09;;;;;;;17.93;10.87;;;4.30;99.90;;;;;;4993904;28;20680;-83
2021/12/27 08:10:34;;;;;;;19.57;10.80;;;4.30;99.90;;;;;;4994762;28;20201;-81
2021/12/27 08:13:01;;;;;;;16.97;11.40;;;4.30;99.90;;;;;;4994982;28;20189;-81
2021/12/27 08:15:27;;;;;;;16.58;12.00;;;4.30;99.90;;;;;;4993662;28;20686;-81
2021/12/27 08:17:53;;;;;;;18.07;11.40;;;4.40;99.90;;;;;;4994787;28;20215;-82
2021/12/27 08:20:18;;;;;;;19.10;11.27;;;4.40;99.90;;;;;;4993493;28;20425;-83
2021/12/27 08:22:44;;;;;;;17.07;10.90;;;4.50;99.90;;;;;;4995019;28;20214;-82
2021/12/27 08:25:09;;;;;;;17.20;11.13;;;4.50;99.90;;;;;;4993586;28;20241;-84
2021/12/27 08:27:38;;;;;;;14.43;11.50;;;4.60;99.90;;;;;;4994565;28;20224;-83
2021/12/27 08:30:05;;;;;;;19.23;13.52;;;4.60;99.90;;;;;;4994351;28;20168;-83
2021/12/27 08:32:32;;;;;;;20.05;11.95;;;4.70;99.90;;;;;;4994599;28;20293;-84
2021/12/27 08:35:01;;;;;;;19.42;12.55;;;4.70;99.90;;;;;;4994660;28;20629;-83
2021/12/27 08:37:28;;;;;;;21.90;12.70;;;4.80;99.90;;;;;;4994550;28;20538;-81
2021/12/27 08:39:53;;;;;;;18.60;11.77;;;4.90;99.90;;;;;;4994155;28;20183;-81
2021/12/27 08:42:19;;;;;;;17.20;10.80;;;5.00;99.90;;;;;;4994360;28;20291;-83
2021/12/27 08:44:45;;;;;;;19.07;12.03;;;5.10;99.90;;;;;;4994469;28;20180;-82
2021/12/27 08:47:12;;;;;;;23.03;14.07;;;5.20;99.90;;;;;;4994348;28;20186;-81
2021/12/27 08:49:38;;;;;;;25.42;14.50;;;5.20;99.90;;;;;;4993804;28;20664;-81
2021/12/27 08:52:04;;;;;;;20.30;13.03;;;5.20;99.90;;;;;;4994214;28;20198;-81
2021/12/27 08:54:29;;;;;;;19.67;14.07;;;5.20;99.90;;;;;;4994177;28;20171;-81
2021/12/27 08:56:55;;;;;;;20.33;13.53;;;5.30;99.90;;;;;;4994156;28;20184;-81
2021/12/27 08:59:21;;;;;;;19.37;11.90;;;5.30;99.90;;;;;;4993854;28;20180;-80
2021/12/27 09:01:46;;;;;;;21.60;13.83;;;5.40;99.90;;;;;;4992624;28;20578;-80
2021/12/27 09:04:12;;;;;;;30.57;14.67;;;5.40;99.90;;;;;;4992978;28;20656;-80
2021/12/27 09:06:37;;;;;;;17.60;12.50;;;5.50;99.90;;;;;;4992854;28;20179;-81
2021/12/27 09:09:04;;;;;;;19.03;13.30;;;5.50;99.90;;;;;;4994245;28;20211;-80
2021/12/27 09:11:30;;;;;;;25.38;13.77;;;5.50;99.90;;;;;;4976427;28;20200;-80
2021/12/27 09:13:55;;;;;;;17.43;12.07;;;5.50;99.90;;;;;;4994071;28;20583;-80
2021/12/27 09:16:21;;;;;;;21.50;11.90;;;5.60;99.90;;;;;;4993990;28;20180;-80
2021/12/27 09:18:47;;;;;;;20.30;11.73;;;5.60;99.90;;;;;;4993974;28;20640;-81
2021/12/27 09:21:13;;;;;;;20.97;12.10;;;5.70;99.90;;;;;;4993528;28;20203;-80
2021/12/27 09:23:38;;;;;;;18.40;12.70;;;5.80;99.90;;;;;;4993982;28;20250;-80
2021/12/27 09:26:05;;;;;;;19.80;13.10;;;5.80;99.90;;;;;;4993848;28;20502;-81
2021/12/27 09:28:31;;;;;;;22.13;14.57;;;5.70;99.90;;;;;;4992586;28;20273;-80
2021/12/27 09:30:57;;;;;;;23.00;13.30;;;5.70;99.90;;;;;;4992708;28;20226;-80
2021/12/27 09:33:23;;;;;;;21.58;13.65;;;5.70;99.90;;;;;;5000354;28;20266;-81
2021/12/27 09:35:48;;;;;;;22.63;14.23;;;5.70;99.90;;;;;;5000069;28;20254;-80
2021/12/27 09:38:14;;;;;;;19.57;14.07;;;5.70;99.90;;;;;;5000145;28;20183;-80
2021/12/27 09:40:41;;;;;;;20.33;13.60;;;5.80;99.90;;;;;;4998526;28;20287;-80
2021/12/27 09:43:07;;;;;;;21.75;14.32;;;5.80;99.90;;;;;;4998900;28;20424;-80
2021/12/27 09:45:33;;;;;;;22.77;14.18;;;5.80;99.90;;;;;;5000142;28;20179;-80
2021/12/27 09:47:58;;;;;;;20.47;12.90;;;5.90;99.90;;;;;;4998610;28;20253;-81
2021/12/27 09:50:33;;;;;;;22.63;13.33;;;5.90;99.90;;;;;;4999658;28;20414;-81
2021/12/27 09:52:59;;;;;;;24.40;13.05;;;6.10;99.90;;;;;;5000077;28;20181;-80
2021/12/27 09:55:27;;;;;;;23.17;12.80;;;6.00;99.90;;;;;;4998841;28;20656;-80
2021/12/27 09:57:53;;;;;;;24.50;13.68;;;6.10;99.90;;;;;;5000016;28;20172;-80
2021/12/27 10:00:19;;;;;;;19.60;13.57;;;6.10;99.90;;;;;;4999860;28;20183;-81
2021/12/27 10:02:50;;;;;;;17.60;12.63;;;6.10;99.90;;;;;;4999934;28;20191;-81
2021/12/27 10:05:16;;;;;;;22.75;13.43;;;6.20;99.90;;;;;;5000015;28;20403;-80
2021/12/27 10:07:42;;;;;;;23.00;14.87;;;6.20;99.90;;;;;;4998800;28;20622;-81
2021/12/27 10:10:10;;;;;;;24.93;13.37;;;6.10;99.90;;;;;;4999461;28;20703;-82
2021/12/27 10:12:36;;;;;;;19.77;12.85;;;6.20;99.90;;;;;;5000010;28;20556;-81
2021/12/27 10:15:06;;;;;;;20.88;12.25;;;6.20;99.90;;;;;;4998721;28;20179;-81
2021/12/27 10:17:35;;;;;;;16.95;12.70;;;6.30;99.90;;;;;;5000118;28;20254;-80
2021/12/27 10:20:15;;;;;;;20.70;11.68;;;6.40;99.90;;;;;;4999577;28;20644;-81
2021/12/27 10:22:43;;;;;;;16.88;11.20;;;6.40;99.90;;;;;;4999981;28;20183;-81
2021/12/27 10:25:16;;;;;;;20.02;12.40;;;6.40;99.90;;;;;;4999904;28;20655;-81
2021/12/27 10:27:42;;;;;;;18.27;12.43;;;6.40;99.90;;;;;;4999887;28;20164;-81
2021/12/27 10:30:10;;;;;;;15.27;11.00;;;6.50;99.90;;;;;;4998367;28;20180;-81
2021/12/27 10:32:36;;;;;;;15.48;9.75;;;6.50;99.90;;;;;;4999709;28;20504;-81
2021/12/27 10:35:05;;;;;;;17.93;12.40;;;6.60;99.90;;;;;;4998792;28;20214;-81
2021/12/27 10:37:32;;;;;;;16.85;11.43;;;6.70;99.90;;;;;;4999769;28;20221;-80
2021/12/27 10:40:12;;;;;;;19.08;13.82;;;6.70;99.90;;;;;;4999403;28;20226;-81
2021/12/27 10:42:44;;;;;;;22.00;12.18;;;6.80;99.90;;;;;;4998360;28;20841;-81
2021/12/27 10:45:13;;;;;;;16.95;11.00;;;7.00;99.90;;;;;;4996453;28;20263;-81
2021/12/27 10:47:49;;;;;;;14.40;11.32;;;7.10;99.90;;;;;;4996681;28;20647;-80
2021/12/27 10:50:23;;;;;;;17.02;11.93;;;7.20;99.90;;;;;;4994887;28;20669;-80
2021/12/27 10:53:08;;;;;;;15.60;9.90;;;7.30;99.90;;;;;;4996425;28;20222;-82
2021/12/27 10:55:38;;;;;;;14.25;10.00;;;7.30;99.90;;;;;;4996399;28;20638;-81
2021/12/27 10:58:25;;;;;;;13.90;9.27;;;7.30;99.90;;;;;;4996318;28;20179;-82
2021/12/27 11:00:58;;;;;;;11.77;8.65;;;7.40;99.90;;;;;;4994793;28;20206;-81
2021/12/27 11:03:31;;;;;;;13.88;8.50;;;7.50;99.90;;;;;;4995014;28;20206;-82
2021/12/27 11:05:57;;;;;;;12.48;8.23;;;7.50;99.90;;;;;;4995322;28;20648;-81
2021/12/27 11:08:23;;;;;;;11.75;7.90;;;7.60;99.90;;;;;;4996050;28;20196;-81
2021/12/27 11:10:49;;;;;;;8.70;7.23;;;7.80;99.90;;;;;;4995697;28;20694;-81
2021/12/27 11:13:15;;;;;;;9.60;6.55;;;7.90;99.90;;;;;;4995073;28;20183;-82
2021/12/27 11:15:42;;;;;;;7.53;6.70;;;8.10;99.90;;;;;;4996087;28;21313;-81
2021/12/27 11:18:08;;;;;;;7.45;6.50;;;8.10;99.90;;;;;;4996027;28;20410;-81
2021/12/27 11:20:35;;;;;;;6.45;5.40;;;8.30;99.90;;;;;;4994586;28;20199;-81
2021/12/27 11:23:03;;;;;;;9.35;5.97;;;8.40;99.90;;;;;;4994909;28;20234;-81
2021/12/27 11:25:36;;;;;;;6.90;5.47;;;8.50;99.90;;;;;;4996016;28;20234;-81
2021/12/27 11:28:03;;;;;;;6.20;5.20;;;8.60;99.90;;;;;;4995718;28;20238;-83
2021/12/27 11:30:31;;;;;;;8.25;5.60;;;8.70;99.90;;;;;;4995419;28;20207;-82
2021/12/27 11:33:15;;;;;;;8.00;4.97;;;8.80;99.90;;;;;;4995614;28;20191;-80
2021/12/27 11:35:50;;;;;;;6.13;4.97;;;8.90;99.90;;;;;;4995672;28;20267;-82
2021/12/27 11:38:34;;;;;;;5.80;4.78;;;9.10;99.90;;;;;;4995558;28;20178;-82
2021/12/27 11:41:02;;;;;;;8.57;5.60;;;9.20;99.90;;;;;;4995119;28;20210;-81
2021/12/27 11:43:47;;;;;;;6.57;4.95;;;9.20;99.90;;;;;;4994268;28;20199;-83
2021/12/27 11:46:13;;;;;;;5.05;4.45;;;9.30;99.90;;;;;;4995602;28;20255;-82
2021/12/27 11:48:48;;;;;;;6.60;5.30;;;9.30;99.90;;;;;;4995318;28;20199;-82
2021/12/27 11:51:15;;;;;;;7.10;4.60;;;9.40;99.90;;;;;;4995016;28;20525;-82
2021/12/27 11:53:41;;;;;;;5.38;3.83;;;9.30;99.90;;;;;;4995269;28;20250;-81
2021/12/27 11:56:11;;;;;;;5.10;3.70;;;9.40;99.90;;;;;;4995073;28;20175;-82
2021/12/27 11:58:38;;;;;;;5.57;4.35;;;9.40;99.90;;;;;;4993974;28;20233;-81
2021/12/27 12:01:24;;;;;;;5.97;4.65;;;9.40;99.90;;;;;;4994740;28;20196;-80
2021/12/27 12:03:51;;;;;;;8.63;5.10;;;9.30;99.90;;;;;;4993721;28;20275;-82
2021/12/27 12:06:40;;;;;;;7.53;4.25;;;9.40;99.90;;;;;;4995106;28;20186;-81
2021/12/27 12:09:14;;;;;;;8.02;4.70;;;9.30;99.90;;;;;;4994888;28;20207;-82
2021/12/27 12:11:40;;;;;;;7.47;5.00;;;9.40;99.90;;;;;;4995076;28;20191;-82
2021/12/27 12:14:32;;;;;;;7.97;6.07;;;9.40;99.90;;;;;;4995167;28;20223;-83
2021/12/27 12:17:04;;;;;;;7.45;4.55;;;9.20;99.90;;;;;;4994632;28;20187;-80
2021/12/27 12:19:45;;;;;;;9.55;6.45;;;9.20;99.90;;;;;;4994638;28;20202;-81
2021/12/27 12:22:35;;;;;;;8.95;6.53;;;9.20;99.90;;;;;;4994831;28;20202;-80
2021/12/27 12:25:11;;;;;;;11.63;5.70;;;9.20;99.90;;;;;;4994853;28;20180;-82
2021/12/27 12:27:36;;;;;;;9.70;7.18;;;9.10;99.90;;;;;;4993697;28;20183;-81
2021/12/27 12:30:03;;;;;;;10.40;6.13;;;9.10;99.90;;;;;;4993132;28;20210;-81
2021/12/27 12:32:29;;;;;;;10.57;7.07;;;9.10;99.90;;;;;;4994506;28;20202;-81
2021/12/27 12:34:55;;;;;;;7.17;6.17;;;9.10;99.90;;;;;;4994737;28;20253;-82
2021/12/27 12:37:20;;;;;;;9.53;6.40;;;9.10;99.90;;;;;;4993368;28;20183;-83
2021/12/27 12:39:50;;;;;;;8.77;6.67;;;9.20;99.90;;;;;;4993050;28;20183;-81
2021/12/27 12:42:23;;;;;;;8.60;5.25;;;9.10;99.90;;;;;;4994402;28;20196;-83
2021/12/27 12:44:59;;;;;;;8.32;4.85;;;9.20;99.90;;;;;;4994525;28;20167;-81